Time;durP1;ratioP1;P1;durP2;ratioP2;P2;SDS_P1;SDS_P2;PMS_P1;PMS_P2;Temp;Humidity;BMP_temperature;BMP_pressure;BME280_temperature;BME280_humidity;BME280_pressure;Samples;Min_cycle;Max_cycle;Signal;HPM_P1;HPM_P2
2022/03/26 00:00:15;;;;;;;106.95;59.28;;;;;;;;;;5065595;28;20382;-62
2022/03/26 00:02:41;;;;;;;115.15;60.58;;;;;;;;;;5049991;28;20484;-62
2022/03/26 00:05:07;;;;;;;113.45;59.22;;;;;;;;;;5050557;28;20124;-62
2022/03/26 00:07:34;;;;;;;96.85;52.95;;;;;;;;;;5050369;28;20140;-62
2022/03/26 00:10:00;;;;;;;104.78;54.95;;;;;;;;;;5050645;28;20041;-62
2022/03/26 00:12:26;;;;;;;108.22;56.50;;;;;;;;;;5050233;28;20098;-62
2022/03/26 00:14:52;;;;;;;133.88;66.60;;;;;;;;;;5049516;28;20044;-63
2022/03/26 00:17:18;;;;;;;105.18;55.92;;;;;;;;;;5049981;28;20041;-62
2022/03/26 00:19:44;;;;;;;94.72;49.08;;;;;;;;;;5052727;28;20053;-62
2022/03/26 00:22:10;;;;;;;92.53;49.28;;;;;;;;;;5028555;28;20056;-62
2022/03/26 00:24:37;;;;;;;76.90;42.83;;;;;;;;;;5049705;28;20041;-62
2022/03/26 00:27:03;;;;;;;90.40;47.03;;;;;;;;;;5055438;28;20408;-62
2022/03/26 00:29:29;;;;;;;107.30;52.13;;;;;;;;;;5049576;28;20472;-62
2022/03/26 00:31:55;;;;;;;123.95;63.63;;;;;;;;;;5029760;28;20053;-62
2022/03/26 00:34:21;;;;;;;140.02;70.47;;;;;;;;;;5030183;28;20047;-62
2022/03/26 00:36:47;;;;;;;138.80;70.00;;;;;;;;;;5027342;28;20112;-62
2022/03/26 00:39:14;;;;;;;143.57;71.68;;;;;;;;;;5030359;28;20520;-62
2022/03/26 00:41:40;;;;;;;130.80;66.72;;;;;;;;;;5029973;28;20060;-62
2022/03/26 00:44:06;;;;;;;134.60;70.18;;;;;;;;;;5028936;28;20049;-62
2022/03/26 00:46:32;;;;;;;133.63;67.15;;;;;;;;;;5030177;28;20037;-62
2022/03/26 00:48:59;;;;;;;125.90;67.25;;;;;;;;;;5027113;28;20491;-62
2022/03/26 00:51:26;;;;;;;139.68;70.85;;;;;;;;;;5029330;28;20073;-62
2022/03/26 00:53:52;;;;;;;122.40;61.60;;;;;;;;;;5011311;28;20136;-62
2022/03/26 00:56:18;;;;;;;100.65;51.75;;;;;;;;;;5030041;28;20084;-62
2022/03/26 00:58:45;;;;;;;114.72;58.78;;;;;;;;;;5028364;28;20084;-62
2022/03/26 01:01:11;;;;;;;118.30;60.20;;;;;;;;;;5029869;28;20231;-62
2022/03/26 01:03:37;;;;;;;111.28;58.38;;;;;;;;;;5029813;28;20053;-62
2022/03/26 01:06:04;;;;;;;119.70;59.80;;;;;;;;;;5029587;28;20037;-62
2022/03/26 01:08:31;;;;;;;124.35;61.85;;;;;;;;;;5030320;28;20064;-62
2022/03/26 01:10:58;;;;;;;116.53;61.13;;;;;;;;;;5027006;28;20072;-62
2022/03/26 01:13:25;;;;;;;111.07;57.33;;;;;;;;;;5029572;28;20037;-62
2022/03/26 01:15:52;;;;;;;115.28;56.10;;;;;;;;;;5029676;28;20042;-62
2022/03/26 01:18:18;;;;;;;113.75;61.55;;;;;;;;;;5027349;28;20499;-62
2022/03/26 01:20:44;;;;;;;120.28;60.33;;;;;;;;;;5024225;28;20068;-62
2022/03/26 01:23:11;;;;;;;123.25;61.17;;;;;;;;;;5026885;28;20071;-62
2022/03/26 01:25:37;;;;;;;129.98;64.30;;;;;;;;;;5025910;28;20045;-62
2022/03/26 01:28:03;;;;;;;122.15;61.53;;;;;;;;;;5029445;28;20091;-62
2022/03/26 01:30:30;;;;;;;127.28;64.75;;;;;;;;;;5032242;28;20441;-63
2022/03/26 01:32:56;;;;;;;130.50;65.65;;;;;;;;;;5049707;28;20098;-62
2022/03/26 01:35:22;;;;;;;136.63;65.93;;;;;;;;;;5049681;28;20497;-62
2022/03/26 01:37:48;;;;;;;97.35;51.05;;;;;;;;;;5048788;28;20072;-63
2022/03/26 01:40:14;;;;;;;59.15;33.47;;;;;;;;;;5048472;28;20048;-62
2022/03/26 01:42:42;;;;;;;52.95;29.15;;;;;;;;;;5048902;28;20048;-62
2022/03/26 01:45:14;;;;;;;41.35;24.33;;;;;;;;;;5048558;28;20485;-62
2022/03/26 01:47:41;;;;;;;46.13;26.90;;;;;;;;;;5046159;28;20037;-62
2022/03/26 01:50:07;;;;;;;56.38;30.63;;;;;;;;;;5048960;28;20045;-62
2022/03/26 01:52:34;;;;;;;67.85;35.67;;;;;;;;;;5033885;28;20396;-62
2022/03/26 01:55:00;;;;;;;72.57;38.03;;;;;;;;;;5048442;28;20045;-62
2022/03/26 01:57:26;;;;;;;78.28;40.72;;;;;;;;;;5049228;28;20041;-62
2022/03/26 01:59:53;;;;;;;87.88;45.25;;;;;;;;;;5048891;28;20172;-62
2022/03/26 02:02:19;;;;;;;93.13;46.65;;;;;;;;;;5048744;28;20033;-62
2022/03/26 02:04:45;;;;;;;101.18;52.05;;;;;;;;;;5048324;28;20041;-62
2022/03/26 02:07:11;;;;;;;96.13;48.10;;;;;;;;;;5049671;28;20399;-62
2022/03/26 02:09:38;;;;;;;104.10;54.15;;;;;;;;;;5052863;28;20040;-62
2022/03/26 02:12:21;;;;;;;71.60;40.63;;;;;;;;;;5035143;28;20045;-62
2022/03/26 02:14:47;;;;;;;50.30;33.10;;;;;;;;;;5033392;28;20433;-62
2022/03/26 02:17:13;;;;;;;79.45;30.23;;;;;;;;;;5052441;28;20518;-62
2022/03/26 02:19:40;;;;;;;59.22;23.42;;;;;;;;;;5052167;28;20151;-62
2022/03/26 02:22:06;;;;;;;33.92;19.35;;;;;;;;;;5034259;28;20049;-62
2022/03/26 02:24:32;;;;;;;37.22;17.45;;;;;;;;;;5051020;28;20055;-62
2022/03/26 02:26:58;;;;;;;45.65;18.75;;;;;;;;;;5064667;28;20128;-62
2022/03/26 02:29:25;;;;;;;35.92;16.10;;;;;;;;;;5030263;28;20132;-62
2022/03/26 02:31:51;;;;;;;47.53;15.68;;;;;;;;;;5051288;28;20061;-62
2022/03/26 02:34:18;;;;;;;208.13;20.42;;;;;;;;;;5053406;28;20072;-62
2022/03/26 02:36:44;;;;;;;186.05;20.30;;;;;;;;;;5051538;28;20063;-62
2022/03/26 02:39:10;;;;;;;118.63;19.25;;;;;;;;;;5052031;28;20509;-62
2022/03/26 02:41:36;;;;;;;196.10;20.85;;;;;;;;;;5051914;28;20443;-62
2022/03/26 02:44:03;;;;;;;288.55;28.10;;;;;;;;;;5051269;28;20044;-62
2022/03/26 02:46:29;;;;;;;237.60;26.73;;;;;;;;;;5051285;28;20470;-62
2022/03/26 02:48:55;;;;;;;276.75;28.58;;;;;;;;;;5052094;28;20106;-62
2022/03/26 02:51:21;;;;;;;189.82;28.42;;;;;;;;;;5051230;28;20179;-62
2022/03/26 02:53:47;;;;;;;162.80;27.98;;;;;;;;;;5033824;28;20048;-62
2022/03/26 02:56:14;;;;;;;124.60;27.17;;;;;;;;;;5051318;28;20531;-62
2022/03/26 02:58:40;;;;;;;126.90;30.60;;;;;;;;;;5034539;28;20554;-62
2022/03/26 03:01:06;;;;;;;217.32;34.85;;;;;;;;;;5051969;28;20156;-62
2022/03/26 03:03:32;;;;;;;357.33;42.25;;;;;;;;;;5033120;28;20071;-62
2022/03/26 03:05:58;;;;;;;222.77;39.58;;;;;;;;;;5036424;28;20422;-62
2022/03/26 03:08:25;;;;;;;190.80;33.90;;;;;;;;;;5052615;28;20032;-62
2022/03/26 03:10:51;;;;;;;49.55;29.58;;;;;;;;;;5051011;28;20124;-62
2022/03/26 03:13:21;;;;;;;47.72;27.30;;;;;;;;;;5052074;28;20446;-62
2022/03/26 03:15:47;;;;;;;43.22;27.67;;;;;;;;;;5019152;28;20048;-62
2022/03/26 03:18:13;;;;;;;38.63;26.85;;;;;;;;;;5052584;28;20167;-62
2022/03/26 03:20:39;;;;;;;39.13;25.33;;;;;;;;;;5034322;28;20084;-62
2022/03/26 03:23:06;;;;;;;40.38;27.17;;;;;;;;;;5051444;28;20044;-62
2022/03/26 03:25:32;;;;;;;39.33;25.42;;;;;;;;;;5033674;28;20067;-62
2022/03/26 03:27:58;;;;;;;32.03;23.48;;;;;;;;;;5036996;28;20044;-62
2022/03/26 03:30:26;;;;;;;36.05;26.67;;;;;;;;;;5034315;28;20076;-62
2022/03/26 03:32:52;;;;;;;36.83;25.52;;;;;;;;;;5043705;28;20344;-62
2022/03/26 03:35:18;;;;;;;39.50;23.33;;;;;;;;;;5024650;28;20514;-62
2022/03/26 03:37:44;;;;;;;36.15;22.45;;;;;;;;;;5049260;28;20194;-62
2022/03/26 03:40:13;;;;;;;71.00;24.85;;;;;;;;;;5032297;28;20045;-62
2022/03/26 03:42:39;;;;;;;35.25;25.88;;;;;;;;;;5049493;28;20494;-62
2022/03/26 03:45:06;;;;;;;205.82;31.20;;;;;;;;;;5066196;28;20053;-62
2022/03/26 03:47:32;;;;;;;62.63;31.50;;;;;;;;;;5049976;28;20057;-62
2022/03/26 03:49:59;;;;;;;104.57;31.33;;;;;;;;;;5050770;28;20085;-62
2022/03/26 03:52:25;;;;;;;89.38;30.90;;;;;;;;;;5050653;28;20055;-62
2022/03/26 03:54:51;;;;;;;50.40;29.90;;;;;;;;;;5050716;28;20129;-62
2022/03/26 03:57:17;;;;;;;92.30;31.45;;;;;;;;;;5050872;28;20102;-62
2022/03/26 03:59:43;;;;;;;215.68;36.65;;;;;;;;;;5049847;28;20558;-62
2022/03/26 04:02:10;;;;;;;164.50;32.90;;;;;;;;;;5050674;28;20053;-62
2022/03/26 04:04:38;;;;;;;106.05;30.60;;;;;;;;;;5066017;28;20053;-62
2022/03/26 04:07:04;;;;;;;50.30;30.85;;;;;;;;;;5050042;28;20121;-62
2022/03/26 04:09:30;;;;;;;55.88;32.60;;;;;;;;;;5050618;28;20459;-62
2022/03/26 04:11:56;;;;;;;49.30;29.52;;;;;;;;;;5048424;28;20124;-62
2022/03/26 04:14:22;;;;;;;50.70;30.85;;;;;;;;;;5049693;28;20088;-62
2022/03/26 04:16:48;;;;;;;49.95;28.55;;;;;;;;;;5050396;28;20490;-62
2022/03/26 04:19:15;;;;;;;71.68;26.67;;;;;;;;;;5050193;28;20037;-62
2022/03/26 04:21:41;;;;;;;62.53;28.67;;;;;;;;;;5050054;28;20146;-62
2022/03/26 04:24:08;;;;;;;53.78;29.15;;;;;;;;;;5050283;28;20124;-62
2022/03/26 04:26:34;;;;;;;47.10;28.00;;;;;;;;;;5050201;28;20045;-62
2022/03/26 04:29:01;;;;;;;48.22;28.65;;;;;;;;;;5049610;28;20044;-62
2022/03/26 04:31:27;;;;;;;48.40;28.52;;;;;;;;;;5065749;28;20136;-62
2022/03/26 04:33:54;;;;;;;59.47;32.03;;;;;;;;;;5031961;28;20106;-62
2022/03/26 04:36:21;;;;;;;58.13;32.40;;;;;;;;;;5050044;28;20044;-62
2022/03/26 04:38:48;;;;;;;46.75;29.30;;;;;;;;;;5053300;28;20565;-62
2022/03/26 04:41:14;;;;;;;95.78;30.83;;;;;;;;;;5050024;28;20055;-62
2022/03/26 04:43:40;;;;;;;212.02;29.98;;;;;;;;;;5046671;28;20047;-62
2022/03/26 04:46:08;;;;;;;347.20;32.15;;;;;;;;;;5050037;28;20040;-62
2022/03/26 04:48:34;;;;;;;359.98;33.22;;;;;;;;;;5032230;28;20087;-62
2022/03/26 04:51:00;;;;;;;417.02;35.55;;;;;;;;;;5063631;28;20048;-62
2022/03/26 04:53:26;;;;;;;203.30;26.88;;;;;;;;;;5048685;28;20124;-62
2022/03/26 04:55:53;;;;;;;62.30;23.50;;;;;;;;;;5043843;28;20484;-62
2022/03/26 04:58:19;;;;;;;33.15;22.60;;;;;;;;;;5062213;28;20561;-61
2022/03/26 05:00:45;;;;;;;100.78;23.20;;;;;;;;;;5047369;28;20048;-61
2022/03/26 05:03:11;;;;;;;32.80;23.80;;;;;;;;;;5061502;28;20407;-62
2022/03/26 05:05:38;;;;;;;27.70;21.58;;;;;;;;;;5027056;28;20558;-61
2022/03/26 05:08:04;;;;;;;33.95;20.73;;;;;;;;;;5044244;28;20044;-62
2022/03/26 05:10:30;;;;;;;46.63;26.50;;;;;;;;;;5046351;28;20396;-62
2022/03/26 05:12:58;;;;;;;47.92;29.05;;;;;;;;;;5030088;28;20037;-62
2022/03/26 05:15:26;;;;;;;53.92;30.92;;;;;;;;;;5031208;28;20080;-62
2022/03/26 05:17:53;;;;;;;63.88;32.42;;;;;;;;;;5048807;28;20408;-62
2022/03/26 05:20:19;;;;;;;48.50;30.02;;;;;;;;;;5049888;28;20063;-63
2022/03/26 05:22:46;;;;;;;38.60;27.17;;;;;;;;;;5064505;28;20048;-62
2022/03/26 05:25:13;;;;;;;37.55;25.90;;;;;;;;;;5048574;28;20498;-63
2022/03/26 05:27:44;;;;;;;71.35;27.58;;;;;;;;;;5048997;28;20041;-63
2022/03/26 05:30:10;;;;;;;77.18;25.35;;;;;;;;;;5031330;28;20345;-63
2022/03/26 05:32:37;;;;;;;48.22;24.08;;;;;;;;;;5063485;28;20049;-62
2022/03/26 05:35:04;;;;;;;38.00;25.27;;;;;;;;;;5048916;28;20051;-62
2022/03/26 05:37:31;;;;;;;45.58;25.92;;;;;;;;;;5064089;28;20063;-62
2022/03/26 05:39:57;;;;;;;34.25;26.35;;;;;;;;;;5048338;28;20049;-62
2022/03/26 05:42:23;;;;;;;30.35;24.80;;;;;;;;;;5065661;28;20037;-62
2022/03/26 05:44:50;;;;;;;28.42;23.17;;;;;;;;;;5051623;28;20051;-62
2022/03/26 05:47:16;;;;;;;28.08;22.10;;;;;;;;;;5052550;28;20114;-62
2022/03/26 05:49:42;;;;;;;34.08;24.58;;;;;;;;;;5068105;28;20052;-62
2022/03/26 05:52:08;;;;;;;30.58;24.17;;;;;;;;;;5033655;28;20052;-62
2022/03/26 05:54:34;;;;;;;27.55;23.45;;;;;;;;;;5051610;28;20041;-62
2022/03/26 05:57:01;;;;;;;29.30;23.98;;;;;;;;;;5052603;28;20045;-62
2022/03/26 05:59:28;;;;;;;25.88;21.77;;;;;;;;;;5051269;28;20094;-62
2022/03/26 06:01:54;;;;;;;29.38;23.08;;;;;;;;;;5051719;28;20052;-62
2022/03/26 06:04:23;;;;;;;28.77;23.50;;;;;;;;;;5052291;28;20099;-62
2022/03/26 06:06:50;;;;;;;30.55;23.10;;;;;;;;;;5051085;28;20139;-62
2022/03/26 06:09:16;;;;;;;29.95;24.45;;;;;;;;;;5053344;28;20052;-62
2022/03/26 06:11:42;;;;;;;24.42;20.42;;;;;;;;;;5052254;28;20106;-63
2022/03/26 06:14:08;;;;;;;21.92;18.90;;;;;;;;;;5052906;28;20060;-62
2022/03/26 06:16:34;;;;;;;22.73;19.50;;;;;;;;;;5052456;28;20037;-62
2022/03/26 06:19:01;;;;;;;21.33;18.30;;;;;;;;;;5053470;28;20043;-64
2022/03/26 06:21:29;;;;;;;21.10;18.77;;;;;;;;;;5051423;28;20488;-62
2022/03/26 06:23:58;;;;;;;22.55;19.30;;;;;;;;;;5052266;28;20045;-63
2022/03/26 06:26:26;;;;;;;27.05;21.83;;;;;;;;;;5050871;28;20044;-62
2022/03/26 06:28:52;;;;;;;28.15;22.45;;;;;;;;;;5034379;28;20069;-62
2022/03/26 06:31:18;;;;;;;22.65;19.13;;;;;;;;;;5053591;28;20052;-63
2022/03/26 06:33:44;;;;;;;20.02;17.88;;;;;;;;;;5053262;28;20056;-63
2022/03/26 06:36:11;;;;;;;22.63;19.13;;;;;;;;;;5033308;28;20504;-62
2022/03/26 06:38:38;;;;;;;20.17;17.75;;;;;;;;;;5052778;28;20071;-63
2022/03/26 06:41:06;;;;;;;21.95;19.08;;;;;;;;;;5041164;28;20040;-63
2022/03/26 06:43:32;;;;;;;30.83;22.85;;;;;;;;;;5051786;28;20049;-62
2022/03/26 06:45:59;;;;;;;39.47;25.00;;;;;;;;;;5052535;28;20128;-63
2022/03/26 06:48:25;;;;;;;45.45;28.13;;;;;;;;;;5053236;28;20477;-62
2022/03/26 06:50:51;;;;;;;53.05;31.60;;;;;;;;;;5052007;28;20053;-62
2022/03/26 06:53:17;;;;;;;52.63;32.30;;;;;;;;;;5053167;28;20039;-63
2022/03/26 06:55:43;;;;;;;58.45;34.03;;;;;;;;;;5037300;28;20044;-63
2022/03/26 06:58:09;;;;;;;53.00;34.78;;;;;;;;;;5067699;28;20388;-62
2022/03/26 07:00:36;;;;;;;57.25;36.92;;;;;;;;;;5051962;28;20504;-62
2022/03/26 07:03:03;;;;;;;60.55;34.88;;;;;;;;;;5051610;28;20492;-62
2022/03/26 07:05:29;;;;;;;70.20;39.95;;;;;;;;;;5052134;28;20523;-62
2022/03/26 07:07:56;;;;;;;85.85;45.67;;;;;;;;;;5053039;28;20039;-62
2022/03/26 07:10:23;;;;;;;186.23;75.28;;;;;;;;;;5051270;28;22163;-63
2022/03/26 07:12:49;;;;;;;210.60;84.20;;;;;;;;;;5051941;28;20045;-63
2022/03/26 07:15:15;;;;;;;240.30;90.25;;;;;;;;;;5049625;28;20045;-63
2022/03/26 07:17:43;;;;;;;250.95;94.32;;;;;;;;;;5060068;28;20053;-63
2022/03/26 07:20:09;;;;;;;279.48;101.88;;;;;;;;;;5030215;28;20049;-62
2022/03/26 07:22:36;;;;;;;278.80;102.78;;;;;;;;;;5052917;28;20052;-63
2022/03/26 07:25:04;;;;;;;266.00;97.80;;;;;;;;;;5047441;28;20116;-63
2022/03/26 07:27:31;;;;;;;252.43;95.85;;;;;;;;;;5066604;28;20495;-63
2022/03/26 07:29:58;;;;;;;263.75;100.63;;;;;;;;;;5052143;28;20041;-63
2022/03/26 07:32:25;;;;;;;249.32;98.68;;;;;;;;;;5062764;28;20412;-62
2022/03/26 07:34:52;;;;;;;264.92;101.10;;;;;;;;;;5049694;28;20072;-62
2022/03/26 07:37:18;;;;;;;257.88;104.78;;;;;;;;;;5030987;28;20396;-63
2022/03/26 07:39:44;;;;;;;260.50;103.18;;;;;;;;;;5047804;28;20677;-63
2022/03/26 07:42:10;;;;;;;246.93;103.35;;;;;;;;;;5031228;28;20538;-63
2022/03/26 07:44:36;;;;;;;245.80;99.15;;;;;;;;;;5047854;28;20037;-63
2022/03/26 07:47:03;;;;;;;231.88;98.20;;;;;;;;;;5032135;28;20053;-63
2022/03/26 07:49:29;;;;;;;204.70;94.90;;;;;;;;;;5049226;28;20041;-63
2022/03/26 07:51:55;;;;;;;201.10;90.68;;;;;;;;;;5050663;28;20037;-63
2022/03/26 07:54:21;;;;;;;186.73;89.82;;;;;;;;;;5051416;28;20091;-63
2022/03/26 07:56:47;;;;;;;179.10;82.53;;;;;;;;;;5059154;28;20135;-63
2022/03/26 07:59:14;;;;;;;158.90;75.60;;;;;;;;;;5051803;28;20115;-62
2022/03/26 08:01:40;;;;;;;143.68;71.55;;;;;;;;;;5047825;28;20041;-62
2022/03/26 08:04:06;;;;;;;142.98;72.40;;;;;;;;;;5064109;28;20045;-61
2022/03/26 08:06:32;;;;;;;135.23;67.30;;;;;;;;;;5043341;28;20052;-62
2022/03/26 08:08:58;;;;;;;137.50;70.70;;;;;;;;;;5047868;28;20059;-62
2022/03/26 08:11:25;;;;;;;138.85;71.00;;;;;;;;;;5033644;28;20124;-62
2022/03/26 08:13:51;;;;;;;130.98;67.18;;;;;;;;;;5051511;28;20047;-62
2022/03/26 08:16:18;;;;;;;131.25;68.75;;;;;;;;;;5052937;28;20049;-62
2022/03/26 08:18:44;;;;;;;120.55;64.93;;;;;;;;;;5035163;28;20124;-62
2022/03/26 08:21:11;;;;;;;129.07;67.95;;;;;;;;;;5052438;28;20489;-62
2022/03/26 08:23:37;;;;;;;137.75;68.97;;;;;;;;;;5052604;28;20125;-62
2022/03/26 08:26:20;;;;;;;145.00;72.40;;;;;;;;;;5035238;28;20051;-62
2022/03/26 08:28:46;;;;;;;136.00;69.03;;;;;;;;;;5033726;28;20057;-62
2022/03/26 08:31:13;;;;;;;112.15;61.17;;;;;;;;;;5034818;28;20106;-62
2022/03/26 08:33:41;;;;;;;109.20;60.42;;;;;;;;;;5034349;28;20052;-62
2022/03/26 08:36:07;;;;;;;96.00;53.38;;;;;;;;;;5033931;28;20460;-62
2022/03/26 08:38:34;;;;;;;86.05;46.80;;;;;;;;;;5053021;28;20112;-62
2022/03/26 08:41:01;;;;;;;86.72;46.78;;;;;;;;;;5052020;28;20349;-62
2022/03/26 08:43:27;;;;;;;87.10;46.70;;;;;;;;;;5034673;28;20051;-62
2022/03/26 08:45:53;;;;;;;89.75;48.70;;;;;;;;;;5034232;28;20132;-62
2022/03/26 08:48:20;;;;;;;89.43;50.40;;;;;;;;;;5051941;28;20380;-62
2022/03/26 08:50:46;;;;;;;81.45;45.78;;;;;;;;;;5052536;28;20088;-62
2022/03/26 08:53:12;;;;;;;79.68;49.78;;;;;;;;;;5052580;28;20378;-62
2022/03/26 08:55:39;;;;;;;82.05;48.50;;;;;;;;;;5051260;28;20044;-62
2022/03/26 08:58:07;;;;;;;82.28;49.58;;;;;;;;;;5052351;28;20504;-62
2022/03/26 09:00:34;;;;;;;81.07;47.63;;;;;;;;;;5052132;28;20135;-62
2022/03/26 09:03:01;;;;;;;83.03;51.40;;;;;;;;;;5051367;28;20098;-62
2022/03/26 09:05:27;;;;;;;81.05;48.60;;;;;;;;;;5034089;28;20055;-62
2022/03/26 09:07:53;;;;;;;78.50;47.90;;;;;;;;;;5034565;28;20127;-62
2022/03/26 09:10:20;;;;;;;83.88;49.92;;;;;;;;;;5051352;28;20049;-62
2022/03/26 09:12:46;;;;;;;79.55;49.40;;;;;;;;;;5034514;28;20049;-62
2022/03/26 09:15:13;;;;;;;79.32;48.35;;;;;;;;;;5051571;28;20049;-62
2022/03/26 09:17:39;;;;;;;79.18;49.63;;;;;;;;;;5033174;28;20049;-62
2022/03/26 09:20:06;;;;;;;75.15;45.83;;;;;;;;;;5052113;28;20085;-62
2022/03/26 09:22:33;;;;;;;71.03;45.85;;;;;;;;;;5052041;28;20041;-62
2022/03/26 09:24:59;;;;;;;73.57;44.70;;;;;;;;;;5051227;28;20060;-62
2022/03/26 09:27:26;;;;;;;64.45;41.47;;;;;;;;;;5051535;28;20033;-62
2022/03/26 09:29:52;;;;;;;69.28;43.33;;;;;;;;;;5042161;28;20460;-61
2022/03/26 09:32:18;;;;;;;63.33;40.38;;;;;;;;;;5042185;28;20386;-62
2022/03/26 09:34:44;;;;;;;59.78;38.13;;;;;;;;;;5042323;28;20052;-71
2022/03/26 09:37:12;;;;;;;53.60;35.00;;;;;;;;;;5061258;28;20473;-62
2022/03/26 09:39:39;;;;;;;54.88;34.63;;;;;;;;;;5051405;28;20040;-61
2022/03/26 09:42:05;;;;;;;49.38;32.47;;;;;;;;;;5045714;28;20056;-62
2022/03/26 09:44:33;;;;;;;49.55;32.50;;;;;;;;;;5048060;28;20080;-62
2022/03/26 09:47:00;;;;;;;47.22;29.27;;;;;;;;;;5045467;28;20075;-62
2022/03/26 09:49:27;;;;;;;40.25;27.88;;;;;;;;;;5045640;28;20472;-62
2022/03/26 09:51:54;;;;;;;33.38;20.77;;;;;;;;;;5041785;28;20493;-62
2022/03/26 09:54:21;;;;;;;37.58;22.40;;;;;;;;;;5044777;28;20045;-62
2022/03/26 09:56:48;;;;;;;30.65;19.75;;;;;;;;;;5023365;28;20063;-62
2022/03/26 09:59:14;;;;;;;28.88;17.95;;;;;;;;;;5047670;28;20045;-63
2022/03/26 10:01:40;;;;;;;34.42;22.27;;;;;;;;;;5055666;28;20053;-62
2022/03/26 10:04:11;;;;;;;33.45;22.38;;;;;;;;;;5040073;28;20094;-62
2022/03/26 10:06:38;;;;;;;28.85;19.67;;;;;;;;;;5043028;28;20441;-62
2022/03/26 10:09:04;;;;;;;26.73;18.00;;;;;;;;;;5048263;28;20041;-61
2022/03/26 10:11:32;;;;;;;24.90;15.57;;;;;;;;;;5045335;28;20038;-62
2022/03/26 10:13:58;;;;;;;27.30;15.38;;;;;;;;;;5019897;28;20052;-61
2022/03/26 10:16:25;;;;;;;25.60;14.38;;;;;;;;;;5043512;28;20041;-61
2022/03/26 10:18:51;;;;;;;23.73;14.23;;;;;;;;;;5047428;28;20041;-61
2022/03/26 10:21:19;;;;;;;22.90;15.43;;;;;;;;;;5023689;28;20592;-62
2022/03/26 10:23:46;;;;;;;23.60;13.18;;;;;;;;;;5043899;28;20049;-62
2022/03/26 10:26:14;;;;;;;21.58;13.02;;;;;;;;;;5046152;28;20190;-62
2022/03/26 10:28:40;;;;;;;19.77;12.85;;;;;;;;;;5024224;28;20067;-74
2022/03/26 10:34:07;;;;;;;19.23;10.52;;;;;;;;;;5051702;28;20120;-67
2022/03/26 10:36:37;;;;;;;18.88;11.43;;;;;;;;;;5032668;28;20190;-63
2022/03/26 10:39:05;;;;;;;20.15;11.63;;;;;;;;;;5061618;28;20147;-63
2022/03/26 10:41:33;;;;;;;17.55;9.50;;;;;;;;;;5050555;28;20116;-62
2022/03/26 10:44:07;;;;;;;18.08;10.82;;;;;;;;;;5046286;28;20110;-62
2022/03/26 10:46:41;;;;;;;18.40;10.90;;;;;;;;;;5048212;28;20400;-62
2022/03/26 10:49:07;;;;;;;16.67;10.05;;;;;;;;;;5050550;28;20499;-62
2022/03/26 10:51:38;;;;;;;18.08;11.65;;;;;;;;;;5029898;28;20102;-62
2022/03/26 10:54:09;;;;;;;15.13;9.75;;;;;;;;;;5067048;28;20048;-62
2022/03/26 10:56:35;;;;;;;14.80;9.15;;;;;;;;;;5064787;28;20464;-62
2022/03/26 10:59:02;;;;;;;16.85;9.18;;;;;;;;;;5050756;28;20048;-62
2022/03/26 11:01:28;;;;;;;15.15;9.20;;;;;;;;;;5050229;28;20044;-62
2022/03/26 11:03:54;;;;;;;16.50;9.55;;;;;;;;;;5030025;28;20400;-63
2022/03/26 11:06:24;;;;;;;15.98;9.02;;;;;;;;;;5050547;28;20063;-63
2022/03/26 11:08:51;;;;;;;13.20;6.45;;;;;;;;;;5048783;28;20422;-63
2022/03/26 11:11:18;;;;;;;10.73;6.03;;;;;;;;;;5050104;28;20037;-63
2022/03/26 11:13:49;;;;;;;12.07;6.22;;;;;;;;;;5050144;28;20041;-63
2022/03/26 11:16:34;;;;;;;17.05;7.43;;;;;;;;;;5050761;28;20055;-63
2022/03/26 11:19:19;;;;;;;11.57;5.82;;;;;;;;;;5048595;28;20079;-63
2022/03/26 11:21:54;;;;;;;11.77;6.93;;;;;;;;;;5053089;28;20163;-68
2022/03/26 11:24:26;;;;;;;12.77;7.28;;;;;;;;;;5046848;28;20041;-63
2022/03/26 11:26:53;;;;;;;11.68;7.10;;;;;;;;;;5049665;28;20041;-63
2022/03/26 11:29:36;;;;;;;13.68;7.43;;;;;;;;;;5034377;28;21408;-63
2022/03/26 11:32:12;;;;;;;10.43;7.15;;;;;;;;;;5049505;28;20055;-63
2022/03/26 11:34:38;;;;;;;10.55;6.80;;;;;;;;;;5061917;28;20053;-63
2022/03/26 11:37:11;;;;;;;10.18;5.97;;;;;;;;;;5030921;28;20045;-63
2022/03/26 11:39:44;;;;;;;11.05;5.50;;;;;;;;;;5050401;28;20045;-63
2022/03/26 11:42:11;;;;;;;9.48;5.28;;;;;;;;;;5052995;28;20420;-63
2022/03/26 11:44:43;;;;;;;9.73;4.60;;;;;;;;;;5048965;28;20037;-63
2022/03/26 11:53:07;;;;;;;10.65;5.03;;;;;;;;;;5063710;28;20055;-63
2022/03/26 11:55:41;;;;;;;8.10;4.72;;;;;;;;;;5048432;28;20071;-63
2022/03/26 11:58:13;;;;;;;7.40;4.57;;;;;;;;;;5047778;28;20478;-63
2022/03/26 12:00:58;;;;;;;11.02;4.20;;;;;;;;;;5048105;28;20041;-63
2022/03/26 12:03:25;;;;;;;7.57;4.70;;;;;;;;;;5049379;28;20029;-63
2022/03/26 12:08:55;;;;;;;8.40;4.57;;;;;;;;;;5058973;28;20049;-64
2022/03/26 12:11:28;;;;;;;7.35;4.30;;;;;;;;;;5047957;28;20041;-77
2022/03/26 12:14:01;;;;;;;8.20;4.13;;;;;;;;;;5045445;28;20314;-63
2022/03/26 12:16:46;;;;;;;8.80;4.10;;;;;;;;;;5049193;28;20056;-63
2022/03/26 12:19:32;;;;;;;9.02;4.05;;;;;;;;;;5047873;28;20049;-63
2022/03/26 12:21:59;;;;;;;7.47;3.78;;;;;;;;;;5048951;28;20086;-63
2022/03/26 12:24:29;;;;;;;6.18;3.90;;;;;;;;;;5047948;28;20044;-64
2022/03/26 12:26:55;;;;;;;7.63;3.13;;;;;;;;;;5047210;28;20052;-62
2022/03/26 12:29:22;;;;;;;6.80;3.90;;;;;;;;;;5049919;28;20033;-63
2022/03/26 12:31:59;;;;;;;7.20;3.92;;;;;;;;;;5048441;28;20045;-63
2022/03/26 12:34:25;;;;;;;6.18;3.38;;;;;;;;;;5043905;28;20080;-63
2022/03/26 12:36:58;;;;;;;8.30;3.90;;;;;;;;;;5030372;28;20049;-63
2022/03/26 12:39:26;;;;;;;6.72;3.85;;;;;;;;;;5060858;28;20539;-63
2022/03/26 12:41:52;;;;;;;5.97;3.15;;;;;;;;;;5041856;28;20061;-63
2022/03/26 12:44:19;;;;;;;7.70;3.08;;;;;;;;;;5044941;28;20113;-64
2022/03/26 12:46:48;;;;;;;8.05;4.68;;;;;;;;;;5047131;28;20045;-64
2022/03/26 12:49:17;;;;;;;6.78;3.95;;;;;;;;;;5028673;28;20040;-63
2022/03/26 12:51:44;;;;;;;7.47;4.13;;;;;;;;;;5045954;28;20076;-63
2022/03/26 12:54:10;;;;;;;7.72;4.05;;;;;;;;;;5043775;28;20439;-63
2022/03/26 12:56:36;;;;;;;8.85;3.67;;;;;;;;;;5047343;28;20119;-63
2022/03/26 12:59:02;;;;;;;7.15;3.95;;;;;;;;;;5030662;28;20150;-63
2022/03/26 13:01:29;;;;;;;6.93;3.78;;;;;;;;;;5046450;28;20056;-62
2022/03/26 13:03:55;;;;;;;6.82;3.20;;;;;;;;;;5047235;28;20110;-63
2022/03/26 13:06:23;;;;;;;7.25;3.50;;;;;;;;;;5048040;28;20041;-63
2022/03/26 13:08:51;;;;;;;6.30;3.60;;;;;;;;;;5047085;28;20060;-62
2022/03/26 13:11:18;;;;;;;8.55;4.03;;;;;;;;;;5045747;28;20049;-63
2022/03/26 13:13:47;;;;;;;10.25;3.88;;;;;;;;;;5045539;28;20045;-63
2022/03/26 13:16:14;;;;;;;6.75;3.33;;;;;;;;;;5028767;28;20041;-62
2022/03/26 13:18:41;;;;;;;7.72;4.13;;;;;;;;;;5061254;28;20050;-63
2022/03/26 13:21:08;;;;;;;10.57;5.13;;;;;;;;;;5044410;28;20051;-63
2022/03/26 13:23:34;;;;;;;9.25;5.07;;;;;;;;;;5046371;28;20550;-63
2022/03/26 13:26:03;;;;;;;8.40;4.15;;;;;;;;;;5047670;28;20491;-62
2022/03/26 13:28:33;;;;;;;8.93;4.65;;;;;;;;;;5029400;28;20776;-62
2022/03/26 13:30:59;;;;;;;7.93;3.75;;;;;;;;;;5061365;28;20110;-63
2022/03/26 13:33:28;;;;;;;6.95;3.38;;;;;;;;;;5028786;28;20392;-62
2022/03/26 13:35:56;;;;;;;7.22;3.58;;;;;;;;;;5047857;28;20353;-63
2022/03/26 13:38:27;;;;;;;8.45;4.05;;;;;;;;;;5029043;28;20049;-60
2022/03/26 13:40:53;;;;;;;8.38;3.90;;;;;;;;;;5045537;28;20131;-63
2022/03/26 13:43:19;;;;;;;7.20;4.07;;;;;;;;;;5047191;28;20063;-63
2022/03/26 13:45:46;;;;;;;7.43;3.97;;;;;;;;;;5047087;28;20044;-63
2022/03/26 13:48:12;;;;;;;10.73;4.97;;;;;;;;;;5047873;28;20048;-63
2022/03/26 13:50:40;;;;;;;9.30;4.45;;;;;;;;;;5046839;28;20397;-63
2022/03/26 13:53:16;;;;;;;8.57;4.63;;;;;;;;;;5030279;28;20040;-63
2022/03/26 13:55:46;;;;;;;8.68;4.00;;;;;;;;;;5045368;28;20175;-63
2022/03/26 13:58:18;;;;;;;7.75;3.70;;;;;;;;;;5046761;28;20033;-63
2022/03/26 14:00:44;;;;;;;10.45;4.03;;;;;;;;;;5046913;28;20048;-63
2022/03/26 14:03:11;;;;;;;7.40;3.80;;;;;;;;;;5047561;28;20480;-63
2022/03/26 14:05:39;;;;;;;5.38;2.90;;;;;;;;;;5050772;28;20041;-63
2022/03/26 14:08:08;;;;;;;10.18;3.95;;;;;;;;;;5050495;28;20036;-63
2022/03/26 14:10:37;;;;;;;6.63;3.60;;;;;;;;;;5033397;28;20045;-63
2022/03/26 14:13:03;;;;;;;7.18;3.40;;;;;;;;;;5032107;28;20128;-62
2022/03/26 14:15:30;;;;;;;5.90;3.22;;;;;;;;;;5050823;28;20097;-63
2022/03/26 14:17:57;;;;;;;7.05;3.30;;;;;;;;;;5052738;28;20094;-64
2022/03/26 14:20:23;;;;;;;8.75;3.80;;;;;;;;;;5052717;28;20432;-63
2022/03/26 14:22:52;;;;;;;7.45;2.67;;;;;;;;;;5053456;28;20041;-63
2022/03/26 14:25:19;;;;;;;6.07;2.70;;;;;;;;;;5049891;28;20097;-62
2022/03/26 14:27:45;;;;;;;7.57;3.03;;;;;;;;;;5030189;28;20045;-63
2022/03/26 14:30:11;;;;;;;6.55;2.70;;;;;;;;;;5051176;28;20041;-63